| time (UTC) | temp C | wind direction | speed KPH | gust KPH | rain 1hr cm | rain 24hr cm | rain mn cm | humidity % | barometer mb |
| 20260503033015 | 22 | 221 | 0.0 | 3.2 | 0.10 | 0.23 | 0.23 | 91 | 1015.5 |
| 20260503031514 | 23 | 214 | 0.0 | 3.2 | 0.05 | 0.18 | 0.18 | 91 | 1015.3 |
| 20260503030006 | 23 | 9 | 0.0 | 0.0 | 0.03 | 0.15 | 0.15 | 91 | 1014.8 |
| 20260503024508 | 23 | 334 | 0.0 | 3.2 | 0.00 | 0.13 | 0.13 | 90 | 1015.1 |
| 20260503021512 | 22 | 152 | 0.0 | 4.8 | 0.00 | 0.13 | 0.13 | 90 | 1014.7 |
| 20260503020004 | 22 | 158 | 0.0 | 3.2 | 0.00 | 0.13 | 0.13 | 90 | 1015.0 |
| 20260503014516 | 22 | 138 | 0.0 | 0.0 | 0.00 | 0.13 | 0.13 | 89 | 1014.9 |
| 20260503013016 | 22 | 138 | 0.0 | 0.0 | 0.00 | 0.13 | 0.13 | 90 | 1014.6 |
| 20260503011513 | 22 | 57 | 0.0 | 0.0 | 0.00 | 0.13 | 0.13 | 90 | 1014.4 |
| 20260503010010 | 22 | 13 | 0.0 | 0.0 | 0.00 | 0.13 | 0.13 | 90 | 1014.5 |
| 20260503004518 | 22 | 13 | 0.0 | 0.0 | 0.00 | 0.13 | 0.13 | 90 | 1014.6 |
| 20260503003011 | 22 | 346 | 0.0 | 0.0 | 0.13 | 0.13 | 0.13 | 90 | 1014.7 |
| 20260503001515 | 22 | 311 | 0.0 | 6.4 | 0.13 | 0.13 | 0.13 | 89 | 1014.5 |
| 20260503000003 | 22 | 320 | 1.6 | 8.0 | 0.13 | 0.13 | 0.13 | 88 | 1014.2 |
| 20260502234520 | 22 | 352 | 1.6 | 17.7 | 0.13 | 0.13 | 0.13 | 84 | 1014.0 |
| 20260502233014 | 26 | 196 | 11.3 | 24.1 | 0.00 | 0.00 | 0.00 | 84 | 1014.0 |
| 20260502230024 | 26 | 301 | 4.8 | 14.5 | 0.00 | 0.00 | 0.00 | 83 | 1013.3 |
| 20260502221509 | 27 | 281 | 6.4 | 14.5 | 0.00 | 0.00 | 0.00 | 81 | 1012.8 |
| 20260502220012 | 27 | 246 | 3.2 | 12.9 | 0.00 | 0.00 | 0.00 | 80 | 1012.7 |
| 20260502211519 | 28 | 327 | 4.8 | 14.5 | 0.00 | 0.00 | 0.00 | 75 | 1012.4 |
| 20260502204518 | 29 | 310 | 4.8 | 16.1 | 0.00 | 0.00 | 0.00 | 72 | 1012.3 |
| 20260502200012 | 30 | 268 | 3.2 | 16.1 | 0.00 | 0.00 | 0.00 | 70 | 1012.0 |
| 20260502190019 | 29 | 248 | 4.8 | 20.9 | 0.00 | 0.00 | 0.00 | 65 | 1012.9 |
| 20260502184520 | 30 | 278 | 6.4 | 17.7 | 0.00 | 0.00 | 0.00 | 68 | 1012.9 |
| 20260502183020 | 29 | 269 | 6.4 | 19.3 | 0.00 | 0.00 | 0.00 | 68 | 1013.1 |
| 20260502181525 | 30 | 279 | 9.7 | 17.7 | 0.00 | 0.00 | 0.00 | 71 | 1013.1 |
| 20260502163031 | 29 | 321 | 1.6 | 12.9 | 0.00 | 0.00 | 0.00 | 76 | 1013.5 |
| 20260502161521 | 28 | 254 | 6.4 | 17.7 | 0.00 | 0.00 | 0.00 | 77 | 1013.5 |
| 20260502151504 | 28 | 274 | 4.8 | 14.5 | 0.00 | 0.00 | 0.00 | 76 | 1013.3 |
| 20260502123029 | 24 | 237 | 0.0 | 0.0 | 0.00 | 0.00 | 0.00 | 89 | 1012.5 |
| 20260502121531 | 23 | 167 | 0.0 | 0.0 | 0.00 | 0.00 | 0.00 | 90 | 1012.5 |
| 20260502114504 | 22 | 156 | 0.0 | 0.0 | 0.00 | 0.00 | 0.00 | 91 | 1012.4 |
| 20260502113028 | 22 | 138 | 0.0 | 0.0 | 0.00 | 0.00 | 0.00 | 91 | 1012.4 |
| 20260502111510 | 22 | 130 | 0.0 | 0.0 | 0.00 | 0.00 | 0.00 | 91 | 1012.5 |
| 20260502110020 | 21 | 129 | 0.0 | 0.0 | 0.00 | 0.00 | 0.00 | 90 | 1012.3 |
| 20260502104527 | 21 | 137 | 0.0 | 0.0 | 0.00 | 0.00 | 0.00 | 90 | 1012.3 |
| 20260502103008 | 21 | 148 | 0.0 | 0.0 | 0.00 | 0.00 | 0.00 | 90 | 1012.2 |
| 20260502101513 | 21 | 137 | 0.0 | 0.0 | 0.00 | 0.00 | 0.00 | 90 | 1012.4 |
| 20260502091508 | 21 | 108 | 0.0 | 0.0 | 0.00 | 0.00 | 0.00 | 90 | 1012.6 |
| 20260502071525 | 21 | 140 | 0.0 | 3.2 | 0.00 | 0.00 | 0.00 | 91 | 1013.0 |
| 20260502070013 | 21 | 128 | 0.0 | 0.0 | 0.00 | 0.00 | 0.00 | 91 | 1013.1 |
| 20260502064503 | 21 | 148 | 1.6 | 8.0 | 0.00 | 0.00 | 0.00 | 91 | 1013.0 |
| 20260502063004 | 21 | 150 | 0.0 | 0.0 | 0.00 | 0.00 | 0.00 | 91 | 1012.8 |
| 20260502061506 | 21 | 259 | 0.0 | 0.0 | 0.00 | 0.00 | 0.00 | 91 | 1012.9 |
| 20260502060025 | 22 | 259 | 0.0 | 0.0 | 0.00 | 0.00 | 0.00 | 91 | 1012.9 |
| 20260502050008 | 21 | 259 | 0.0 | 0.0 | 0.00 | 0.00 | 0.00 | 89 | 1013.0 |
| 20260502044511 | 22 | 259 | 0.0 | 0.0 | 0.00 | 0.00 | 0.00 | 89 | 1012.9 |
| 20260502043019 | 22 | 259 | 0.0 | 0.0 | 0.00 | 0.00 | 0.00 | 89 | 1013.1 |